Brentwood, TN (37027)

2:52 PM CST on December 09, 2016 (GMT -0600)
| | Change Station

Elev -9999 ft 0.00 °N, 0.00 °E | Updated 3 minutes ago

Clear
Clear
70 °F
Feels Like 70 °F
N
5
Wind Variable Wind from South
Gusts mph

Today
High -- | Low -- °F
--% Chance of Precip.
Yesterday
High -- | Low -- °F
Precip. -- in
Pressure 30.57 in
Visibility 10.0 miles
Clouds Clear
Dew Point 63 °F
Humidity 79%
Rainfall --
Snow Depth Not available.
6:46 AM 4:32 PM
Waxing Gibbous, 77% visible
METAR KBNA 091953Z 30007KT 10SM CLR 03/M09 A3055 RMK AO2 SLP350 T00281094
Pressure 30.57 in
Visibility 10.0 miles
Clouds Clear
Dew Point 63 °F
Humidity 79%
Rainfall --
Snow Depth Not available.
6:46 AM 4:32 PM
Waxing Gibbous, 77% visible
METAR KBNA 091953Z 30007KT 10SM CLR 03/M09 A3055 RMK AO2 SLP350 T00281094

10-Day Weather Forecast

Almanac

Astronomy

Dec. 09, 2016 Rise Set
Actual Time
Civil Twilight
Nautical Twilight
Astronomical Twilight
Moon
Length of Visible Light
Length of Day
Tomorrow will be .
, % of the Moon is Illuminated

Today's Extremes

State Highs State Lows

Community

WunderPhotos

Upload Photos

1,956,517 photos uploaded!

WunderBlog® & News

Nearby

Air Quality

  Air Quality AQ Index Pollutant
Not available.

Snow Depth

Station Depth Elevation

Earthquake Activity

City Distance Mag. Time & Date
Minimum magnitude displayed is 2.5.

Coastal Water Temperatures

Place Temperature

Stations

Nearby Weather Stations

Station Location Temp. Windchill Dew Point Humidity Wind Precip. Elev Updated Type
                   

Watches & Warnings

There are currently no watches in effect.